Time;durP1;ratioP1;P1;durP2;ratioP2;P2;SDS_P1;SDS_P2;PMS_P1;PMS_P2;Temp;Humidity;BMP_temperature;BMP_pressure;BME280_temperature;BME280_humidity;BME280_pressure;Samples;Min_cycle;Max_cycle;Signal;HPM_P1;HPM_P2
2024/02/04 00:01:49;;;;;;;15.02;10.57;;;;;;;9.04;45.12;99037.25;4995291;28;20049;-77
2024/02/04 00:04:15;;;;;;;12.80;10.30;;;;;;;9.01;44.77;99035.69;5027551;28;20131;-77
2024/02/04 00:06:41;;;;;;;22.05;10.48;;;;;;;9.02;45.07;99039.97;4963001;28;20041;-78
2024/02/04 00:09:06;;;;;;;13.45;10.75;;;;;;;8.99;45.06;99037.56;4962753;28;20046;-78
2024/02/04 00:11:32;;;;;;;13.43;10.50;;;;;;;8.91;45.09;99026.81;4978951;28;20072;-78
2024/02/04 00:13:57;;;;;;;13.07;10.30;;;;;;;8.95;45.04;99046.50;4979021;28;20085;-78
2024/02/04 00:16:23;;;;;;;14.05;10.82;;;;;;;8.88;44.73;99027.81;4979068;28;20034;-77
2024/02/04 00:18:48;;;;;;;12.13;10.68;;;;;;;8.87;45.20;99027.94;5010975;28;20136;-76
2024/02/04 00:21:14;;;;;;;12.45;10.00;;;;;;;8.88;45.28;99043.44;4979244;28;20038;-76
2024/02/04 00:23:39;;;;;;;14.65;10.13;;;;;;;8.86;45.27;99042.72;4978911;28;20183;-77
2024/02/04 00:26:05;;;;;;;19.20;9.63;;;;;;;8.86;45.15;99045.31;4994798;28;20041;-77
2024/02/04 00:28:30;;;;;;;11.45;9.38;;;;;;;8.84;45.20;99047.19;4978849;28;20084;-77
2024/02/04 00:30:57;;;;;;;14.02;9.93;;;;;;;8.83;45.43;99048.13;4978872;28;20037;-77
2024/02/04 00:33:23;;;;;;;13.45;8.77;;;;;;;8.83;45.53;99055.94;4995148;28;20044;-77
2024/02/04 00:35:48;;;;;;;11.73;8.35;;;;;;;8.76;45.50;99041.66;4978561;28;20037;-77
2024/02/04 00:38:14;;;;;;;9.25;7.57;;;;;;;8.86;45.89;99058.34;4979504;28;20049;-77
2024/02/04 00:40:39;;;;;;;10.38;7.32;;;;;;;8.88;45.82;99060.84;4995334;28;20037;-78
2024/02/04 00:43:05;;;;;;;9.75;6.72;;;;;;;8.87;45.97;99054.81;4994869;28;20528;-78
2024/02/04 00:45:30;;;;;;;9.80;6.82;;;;;;;8.92;45.64;99069.28;4995576;28;20064;-78
2024/02/04 00:47:56;;;;;;;7.38;6.55;;;;;;;8.86;45.92;99065.31;5014427;28;20069;-77
2024/02/04 00:50:21;;;;;;;11.07;6.70;;;;;;;8.86;45.66;99057.50;4982395;28;20041;-77
2024/02/04 00:52:47;;;;;;;7.38;6.32;;;;;;;8.91;45.74;99065.03;5016168;28;20053;-76
2024/02/04 00:55:12;;;;;;;8.18;6.22;;;;;;;8.92;45.83;99061.47;4998807;28;20444;-77
2024/02/04 00:57:38;;;;;;;7.30;5.40;;;;;;;8.92;46.01;99069.28;4998745;28;20046;-76
2024/02/04 01:00:04;;;;;;;7.75;5.25;;;;;;;8.88;46.00;99059.06;4982381;28;20056;-77
2024/02/04 01:02:30;;;;;;;9.10;5.78;;;;;;;8.89;46.08;99059.94;4981567;28;20038;-77
2024/02/04 01:04:56;;;;;;;8.63;4.72;;;;;;;8.93;46.05;99070.97;5016058;28;20045;-77
2024/02/04 01:07:21;;;;;;;6.00;4.63;;;;;;;8.88;46.34;99064.28;4998294;28;20362;-77
2024/02/04 01:09:46;;;;;;;5.93;4.50;;;;;;;8.91;46.35;99063.25;4981676;28;20037;-77
2024/02/04 01:12:12;;;;;;;6.00;4.65;;;;;;;8.92;46.13;99070.16;4981485;28;20077;-79
2024/02/04 01:14:37;;;;;;;5.32;4.07;;;;;;;8.87;46.53;99059.16;4997552;28;20050;-78
2024/02/04 01:17:03;;;;;;;5.50;4.10;;;;;;;8.90;46.26;99069.38;4998326;28;20034;-76
2024/02/04 01:19:28;;;;;;;6.85;3.97;;;;;;;8.92;46.73;99066.69;4982453;28;20072;-77
2024/02/04 01:21:54;;;;;;;4.68;3.35;;;;;;;8.88;46.82;99066.88;5015730;28;20086;-77
2024/02/04 01:24:19;;;;;;;3.78;3.10;;;;;;;8.88;46.63;99056.47;4982207;28;20056;-77
2024/02/04 01:26:45;;;;;;;5.72;3.42;;;;;;;8.87;46.91;99054.81;5015828;28;20042;-77
2024/02/04 01:29:10;;;;;;;5.25;3.47;;;;;;;8.80;46.69;99048.31;4998085;28;20482;-78
2024/02/04 01:31:36;;;;;;;5.07;3.08;;;;;;;8.84;47.10;99060.22;4981777;28;20049;-78
2024/02/04 01:34:01;;;;;;;4.78;3.28;;;;;;;8.78;46.95;99047.59;4981725;28;20525;-77
2024/02/04 01:36:27;;;;;;;4.65;3.03;;;;;;;8.77;47.14;99038.09;4965191;28;20042;-77
2024/02/04 01:38:53;;;;;;;4.03;2.92;;;;;;;8.83;47.07;99040.31;4981747;28;20041;-76
2024/02/04 01:41:18;;;;;;;4.30;3.10;;;;;;;8.80;47.49;99022.28;5015396;28;20034;-76
2024/02/04 01:43:44;;;;;;;6.82;3.03;;;;;;;8.82;47.35;99033.47;5015354;28;20033;-77
2024/02/04 01:46:09;;;;;;;4.45;2.88;;;;;;;8.83;47.76;99021.28;5015244;28;20144;-77
2024/02/04 01:48:35;;;;;;;5.82;2.75;;;;;;;8.79;47.47;99012.81;4980866;28;20485;-77
2024/02/04 01:51:00;;;;;;;4.70;2.92;;;;;;;8.81;47.63;99018.75;4981029;28;20473;-77
2024/02/04 01:53:26;;;;;;;4.90;2.58;;;;;;;8.85;47.95;99024.59;4997857;28;20037;-77
2024/02/04 01:55:52;;;;;;;3.58;2.75;;;;;;;8.86;47.95;99016.69;4981363;28;20033;-77
2024/02/04 01:58:17;;;;;;;4.53;3.00;;;;;;;8.88;47.89;99022.63;4981144;28;20478;-77
2024/02/04 02:00:43;;;;;;;4.60;2.90;;;;;;;8.88;47.77;99012.22;5015073;28;20049;-77
2024/02/04 02:03:08;;;;;;;5.97;4.30;;;;;;;8.82;47.72;99010.03;4964937;28;20152;-77
2024/02/04 02:05:34;;;;;;;6.53;4.75;;;;;;;8.81;47.54;99010.94;4981157;28;20485;-76
2024/02/04 02:07:59;;;;;;;7.43;4.40;;;;;;;8.78;47.21;99002.50;4981787;28;20116;-77
2024/02/04 02:10:25;;;;;;;8.05;5.07;;;;;;;8.78;47.45;99008.53;4997058;28;20489;-76
2024/02/04 02:13:04;;;;;;;9.35;5.72;;;;;;;8.74;47.25;99004.47;4996763;28;20038;-78
2024/02/04 02:15:32;;;;;;;9.93;5.70;;;;;;;8.73;47.08;99020.16;4982934;28;20532;-77
2024/02/04 02:18:29;;;;;;;10.90;6.43;;;;;;;8.53;47.06;99024.88;4981434;28;20068;-77
2024/02/04 02:21:17;;;;;;;9.73;6.72;;;;;;;8.48;47.02;99021.75;4996899;28;20044;-79
2024/02/04 02:24:04;;;;;;;15.70;6.93;;;;;;;8.47;46.60;99020.06;4997743;28;20034;-77
2024/02/04 02:26:31;;;;;;;10.20;7.22;;;;;;;8.38;46.52;99005.00;4981155;28;20261;-77
2024/02/04 02:28:57;;;;;;;10.30;6.90;;;;;;;8.38;46.49;99015.41;4977959;28;20045;-76
2024/02/04 02:31:22;;;;;;;14.38;7.25;;;;;;;8.32;46.86;99007.06;4996885;28;20038;-77
2024/02/04 02:33:48;;;;;;;9.93;6.70;;;;;;;8.36;46.62;99012.91;4972204;28;20046;-78
2024/02/04 02:36:17;;;;;;;10.68;6.80;;;;;;;8.36;46.87;99015.50;4985300;28;20030;-77
2024/02/04 02:39:10;;;;;;;;;;;;;;;8.36;46.54;99017.28;4961837;28;20049;-75
2024/02/04 02:41:35;;;;;;;9.23;5.93;;;;;;;8.26;46.60;99001.41;5010912;28;19910;-77
2024/02/04 02:44:01;;;;;;;10.30;6.65;;;;;;;8.32;46.84;99014.03;4980856;28;20061;-77
2024/02/04 02:46:26;;;;;;;9.70;6.60;;;;;;;8.27;46.64;98997.88;4996556;28;20132;-77
2024/02/04 02:48:52;;;;;;;8.73;5.93;;;;;;;8.31;46.77;99002.78;4980523;28;20041;-77
2024/02/04 02:51:17;;;;;;;8.15;5.57;;;;;;;8.30;46.82;99002.88;4980674;28;20477;-78
2024/02/04 02:53:43;;;;;;;13.20;6.80;;;;;;;8.29;47.10;98998.63;4996686;28;20066;-78
2024/02/04 02:56:08;;;;;;;8.68;5.57;;;;;;;8.24;46.97;98998.06;4980014;28;20038;-77
2024/02/04 02:58:34;;;;;;;9.07;6.00;;;;;;;8.26;46.79;98994.44;4996093;28;20038;-76
2024/02/04 03:00:59;;;;;;;8.00;5.82;;;;;;;8.19;47.06;98989.72;5013907;28;20042;-76
2024/02/04 03:03:25;;;;;;;8.73;5.80;;;;;;;8.22;47.09;99000.75;4963699;28;20044;-77
2024/02/04 03:05:50;;;;;;;10.82;5.72;;;;;;;8.14;47.43;98988.25;4980202;28;20149;-78
2024/02/04 03:08:16;;;;;;;9.02;5.47;;;;;;;8.20;47.27;99005.22;4964112;28;20072;-77
2024/02/04 03:10:42;;;;;;;8.02;5.53;;;;;;;8.18;47.15;98994.09;4979267;28;20035;-78
2024/02/04 03:13:07;;;;;;;8.32;5.82;;;;;;;8.12;47.41;98984.06;4979998;28;20104;-76
2024/02/04 03:15:33;;;;;;;10.18;6.00;;;;;;;8.10;47.46;98986.75;4963721;28;20042;-78
2024/02/04 03:17:58;;;;;;;11.40;5.82;;;;;;;8.14;47.59;98997.81;4979975;28;20048;-76
2024/02/04 03:20:24;;;;;;;9.70;5.43;;;;;;;8.09;47.56;98992.06;4980232;28;20045;-77
2024/02/04 03:22:49;;;;;;;7.25;5.45;;;;;;;8.12;47.36;98990.09;4963563;28;20073;-76
2024/02/04 03:25:15;;;;;;;8.02;5.32;;;;;;;8.07;47.64;98988.72;4960228;28;20069;-76
2024/02/04 03:27:40;;;;;;;8.60;5.57;;;;;;;8.04;47.69;98986.31;4960419;28;20490;-76
2024/02/04 03:30:06;;;;;;;10.00;5.35;;;;;;;8.08;47.75;99000.78;4960129;28;20035;-76
2024/02/04 03:32:33;;;;;;;9.70;5.60;;;;;;;8.03;47.69;98987.25;4960177;28;20050;-76
2024/02/04 03:35:02;;;;;;;8.20;4.82;;;;;;;8.02;47.93;98990.75;4960555;28;20042;-76
2024/02/04 03:37:28;;;;;;;7.45;5.03;;;;;;;8.01;47.69;98984.72;4960199;28;20038;-76
2024/02/04 03:39:53;;;;;;;5.80;4.68;;;;;;;8.05;47.82;98990.56;4976425;28;20387;-77
2024/02/04 03:42:20;;;;;;;6.70;4.68;;;;;;;8.06;48.26;98994.84;4960025;28;20446;-77
2024/02/04 03:44:46;;;;;;;6.10;4.40;;;;;;;8.03;48.07;98995.03;4976487;28;20413;-77
2024/02/04 03:47:12;;;;;;;8.73;4.82;;;;;;;7.97;47.95;98980.66;4944060;28;20050;-76
2024/02/04 03:49:37;;;;;;;7.20;4.30;;;;;;;8.02;48.25;98991.63;4943433;28;20038;-77
2024/02/04 03:52:03;;;;;;;6.03;4.40;;;;;;;8.00;48.22;98985.69;4976335;28;20046;-76
2024/02/04 03:54:28;;;;;;;6.18;4.35;;;;;;;8.00;48.17;98975.28;4976179;28;20538;-77
2024/02/04 03:56:54;;;;;;;5.75;4.50;;;;;;;7.94;48.12;98957.47;4993467;28;20073;-77
2024/02/04 03:59:19;;;;;;;7.75;4.70;;;;;;;7.97;48.58;98963.28;4976058;28;20049;-78
2024/02/04 04:01:49;;;;;;;7.43;4.88;;;;;;;8.00;48.36;98969.22;4943742;28;20038;-77
2024/02/04 04:04:15;;;;;;;6.57;4.35;;;;;;;8.00;48.30;98956.22;4960602;28;20042;-76
2024/02/04 04:06:41;;;;;;;8.70;4.50;;;;;;;7.97;48.48;98957.28;4959135;28;20487;-76
2024/02/04 04:09:07;;;;;;;7.35;4.40;;;;;;;7.96;48.64;98956.41;4975785;28;20043;-77
2024/02/04 04:11:32;;;;;;;6.10;3.85;;;;;;;8.03;48.75;98963.84;4943572;28;20050;-77
2024/02/04 04:13:58;;;;;;;5.75;3.85;;;;;;;8.05;48.36;98967.16;4975331;28;20406;-77
2024/02/04 04:16:23;;;;;;;6.13;3.80;;;;;;;8.06;48.72;98971.44;4975383;28;20050;-76
2024/02/04 04:18:49;;;;;;;6.97;4.20;;;;;;;8.08;49.14;98970.44;4975889;28;20406;-77
2024/02/04 04:21:15;;;;;;;5.93;4.10;;;;;;;8.06;48.84;98958.44;4975342;28;20478;-77
2024/02/04 04:23:40;;;;;;;8.88;3.90;;;;;;;8.12;48.68;98968.47;4959340;28;20042;-77
2024/02/04 04:26:06;;;;;;;5.38;3.90;;;;;;;8.10;48.81;98967.75;4943756;28;20038;-77
2024/02/04 04:28:31;;;;;;;4.68;3.38;;;;;;;8.16;48.70;98980.38;4959598;28;20042;-76
2024/02/04 04:30:57;;;;;;;5.80;3.83;;;;;;;8.18;48.67;98967.25;4992959;28;20038;-76
2024/02/04 04:33:22;;;;;;;6.38;3.67;;;;;;;8.16;48.88;98962.16;4975594;28;20046;-77
2024/02/04 04:35:48;;;;;;;5.50;3.80;;;;;;;8.21;49.23;98974.88;4959280;28;20105;-77
2024/02/04 04:38:13;;;;;;;7.05;3.60;;;;;;;8.25;49.18;98968.53;4943704;28;20072;-78
2024/02/04 04:40:40;;;;;;;5.75;3.53;;;;;;;8.26;49.01;98971.03;4975780;28;20514;-76
2024/02/04 04:43:06;;;;;;;5.00;3.60;;;;;;;8.29;49.51;98964.81;4992888;28;20400;-77
2024/02/04 04:45:32;;;;;;;6.82;3.33;;;;;;;8.25;49.27;98950.31;4975463;28;20058;-77
2024/02/04 04:47:57;;;;;;;4.88;3.75;;;;;;;8.33;49.06;98964.53;4959518;28;20446;-77
2024/02/04 04:50:23;;;;;;;5.03;3.30;;;;;;;8.30;49.20;98958.66;4975138;28;20453;-77
2024/02/04 04:52:48;;;;;;;5.43;3.60;;;;;;;8.32;49.38;98962.03;4958436;28;20509;-76
2024/02/04 04:55:14;;;;;;;5.53;3.40;;;;;;;8.34;49.28;98957.56;4975396;28;20042;-76
2024/02/04 04:57:39;;;;;;;5.55;3.50;;;;;;;8.37;49.58;98954.75;4975215;28;20038;-76
2024/02/04 05:00:09;;;;;;;4.80;3.40;;;;;;;8.43;49.62;98966.53;4992711;28;20085;-78
2024/02/04 05:02:39;;;;;;;4.40;3.42;;;;;;;8.39;49.64;98965.88;4959173;28;20047;-78
2024/02/04 05:05:06;;;;;;;5.40;3.28;;;;;;;8.46;49.68;98972.41;4958955;28;20037;-77
2024/02/04 05:07:31;;;;;;;7.88;3.30;;;;;;;8.47;49.61;98976.66;4959251;28;20564;-77
2024/02/04 05:09:56;;;;;;;5.18;3.28;;;;;;;8.49;49.47;98977.44;4992397;28;20026;-77
2024/02/04 05:12:22;;;;;;;4.10;2.97;;;;;;;8.46;49.85;98974.16;4992573;28;20038;-76
2024/02/04 05:14:48;;;;;;;4.90;2.95;;;;;;;8.50;50.05;98971.28;4942785;28;20459;-77
2024/02/04 05:17:13;;;;;;;4.25;2.85;;;;;;;8.51;49.38;98974.72;4942788;28;20046;-77
2024/02/04 05:19:41;;;;;;;4.47;2.92;;;;;;;8.48;49.74;98978.34;4974973;28;20038;-77
2024/02/04 05:22:07;;;;;;;4.35;3.00;;;;;;;8.46;49.91;98981.97;4975028;28;20047;-76
2024/02/04 05:24:32;;;;;;;3.60;2.80;;;;;;;8.46;49.70;98985.44;4959263;28;20042;-77
2024/02/04 05:26:58;;;;;;;3.92;2.70;;;;;;;8.50;49.89;98986.88;4974927;28;20047;-78
2024/02/04 05:29:23;;;;;;;4.30;2.70;;;;;;;8.43;49.95;98979.53;4974662;28;20097;-78
2024/02/04 05:31:49;;;;;;;4.82;2.90;;;;;;;8.48;49.86;98991.34;4942875;28;20501;-77
2024/02/04 05:34:14;;;;;;;4.40;2.75;;;;;;;8.47;50.02;99002.69;4977672;28;20059;-77
2024/02/04 05:36:41;;;;;;;4.10;2.60;;;;;;;8.46;50.14;99003.63;4995989;28;20390;-77
2024/02/04 05:39:13;;;;;;;5.57;2.92;;;;;;;8.45;50.39;99020.16;4978798;28;20417;-77
2024/02/04 05:41:39;;;;;;;3.50;2.63;;;;;;;8.45;50.13;99021.94;4977919;28;20034;-76
2024/02/04 05:44:05;;;;;;;2.95;2.35;;;;;;;8.42;50.42;99022.94;4946065;28;20045;-77
2024/02/04 05:46:30;;;;;;;3.83;2.63;;;;;;;8.46;50.51;99018.38;4963155;28;20038;-78
2024/02/04 05:48:56;;;;;;;4.65;2.42;;;;;;;8.43;50.13;99019.44;4945991;28;20430;-77
2024/02/04 05:51:22;;;;;;;3.35;2.50;;;;;;;8.47;50.38;99026.09;4977892;28;20414;-76
2024/02/04 05:53:47;;;;;;;4.60;2.92;;;;;;;8.53;50.25;99035.28;4978222;28;20038;-77
2024/02/04 05:56:13;;;;;;;3.90;2.70;;;;;;;8.58;50.13;99028.03;4961955;28;20130;-77
2024/02/04 05:58:39;;;;;;;4.00;2.70;;;;;;;8.62;50.09;99042.53;4962382;28;20038;-76
2024/02/04 06:01:05;;;;;;;3.70;2.95;;;;;;;8.67;49.94;99042.25;4978236;28;20030;-77
2024/02/04 06:03:30;;;;;;;3.85;2.97;;;;;;;8.67;50.09;99040.47;4961455;28;20097;-76
2024/02/04 06:05:56;;;;;;;3.78;2.63;;;;;;;8.77;50.03;99035.50;4946164;28;20042;-78
2024/02/04 06:08:21;;;;;;;4.25;2.70;;;;;;;8.84;49.80;99028.97;4977323;28;20039;-77
2024/02/04 06:10:47;;;;;;;5.90;2.58;;;;;;;8.96;49.78;99029.13;4961105;28;20038;-75
2024/02/04 06:13:13;;;;;;;3.90;2.60;;;;;;;9.05;49.61;99020.72;4961874;28;20049;-76
2024/02/04 06:15:38;;;;;;;5.85;2.53;;;;;;;9.14;49.49;99033.13;4961642;28;20047;-78
2024/02/04 06:18:04;;;;;;;3.55;2.40;;;;;;;9.22;49.17;99030.03;4978075;28;20042;-76
2024/02/04 06:20:29;;;;;;;4.18;2.70;;;;;;;9.32;49.21;99033.69;4977821;28;20154;-77
2024/02/04 06:22:55;;;;;;;3.70;2.42;;;;;;;9.41;49.09;99030.47;4977700;28;20093;-77
2024/02/04 06:25:20;;;;;;;4.82;3.50;;;;;;;9.47;49.14;99016.19;4961654;28;20046;-77
2024/02/04 06:27:46;;;;;;;5.82;3.40;;;;;;;9.55;48.58;99013.91;4944705;28;20039;-78
2024/02/04 06:30:12;;;;;;;7.55;4.47;;;;;;;9.63;48.53;99010.78;4945028;28;20516;-77
2024/02/04 06:32:37;;;;;;;8.32;4.93;;;;;;;9.67;48.57;99001.78;4960214;28;20038;-79
2024/02/04 06:35:03;;;;;;;8.50;5.57;;;;;;;9.75;48.22;99007.31;4944515;28;20046;-77
2024/02/04 06:37:28;;;;;;;9.63;5.00;;;;;;;9.83;48.09;99005.97;4960831;28;20049;-76
2024/02/04 06:39:54;;;;;;;11.77;6.20;;;;;;;9.87;47.86;99005.66;4994855;28;20038;-78
2024/02/04 06:42:19;;;;;;;10.50;6.18;;;;;;;9.97;47.82;99013.66;4961266;28;20475;-78
2024/02/04 06:44:45;;;;;;;10.68;6.32;;;;;;;10.08;47.53;99016.34;4993868;28;20050;-79
2024/02/04 06:47:14;;;;;;;13.15;6.70;;;;;;;10.15;47.31;99011.53;4961058;28;20046;-76
2024/02/04 06:49:43;;;;;;;12.38;6.57;;;;;;;10.20;47.20;99009.47;4994712;28;20042;-77
2024/02/04 06:52:09;;;;;;;11.52;7.45;;;;;;;10.26;46.95;99013.41;4961125;28;20054;-78
2024/02/04 06:54:34;;;;;;;11.05;7.13;;;;;;;10.29;46.90;99013.19;4944614;28;20038;-76
2024/02/04 06:57:00;;;;;;;12.93;7.90;;;;;;;10.27;46.87;98999.41;4977326;28;20038;-78
2024/02/04 06:59:25;;;;;;;9.70;6.85;;;;;;;10.21;47.18;99000.69;4945480;28;20030;-78
2024/02/04 07:01:52;;;;;;;14.52;7.32;;;;;;;10.22;47.23;99011.97;4944839;28;20490;-78
2024/02/04 07:04:18;;;;;;;12.98;6.90;;;;;;;10.28;47.55;99009.75;4961041;28;20069;-78
2024/02/04 07:06:44;;;;;;;12.40;7.43;;;;;;;10.27;47.54;99020.28;4976786;28;20038;-78
2024/02/04 07:09:09;;;;;;;11.88;6.32;;;;;;;10.30;47.79;99014.88;4944408;28;20097;-78
2024/02/04 07:11:35;;;;;;;7.28;4.03;;;;;;;10.43;53.79;99007.84;4948730;28;20042;-79
2024/02/04 07:14:00;;;;;;;7.10;4.47;;;;;;;10.66;52.78;99000.16;5014213;28;20050;-79
2024/02/04 07:16:26;;;;;;;10.57;5.00;;;;;;;10.82;50.92;99012.94;4963681;28;20037;-77
2024/02/04 07:18:51;;;;;;;14.02;4.07;;;;;;;10.89;50.23;99013.31;4979879;28;20042;-82
2024/02/04 07:21:17;;;;;;;5.15;3.50;;;;;;;11.01;50.24;99007.19;4979527;28;20064;-83
2024/02/04 07:23:42;;;;;;;3.78;2.92;;;;;;;11.08;49.91;99003.16;4979889;28;20132;-78
2024/02/04 07:26:09;;;;;;;4.30;2.60;;;;;;;11.33;53.56;99009.19;5018346;28;20378;-84
2024/02/04 07:28:34;;;;;;;10.63;2.47;;;;;;;11.52;52.91;99019.09;4982529;28;20042;-81
2024/02/04 07:31:00;;;;;;;9.73;2.17;;;;;;;11.82;57.89;99021.13;4980543;28;20061;-83
2024/02/04 07:33:25;;;;;;;7.43;2.42;;;;;;;12.00;55.77;99010.22;4979911;28;20139;-78
2024/02/04 07:35:51;;;;;;;4.10;2.10;;;;;;;12.07;53.75;99014.03;4963191;28;20033;-79
2024/02/04 07:38:17;;;;;;;2.67;1.90;;;;;;;12.15;52.18;99016.06;4963232;28;20076;-79
2024/02/04 07:40:42;;;;;;;3.10;2.00;;;;;;;12.22;51.64;99020.69;4995453;28;20117;-78
2024/02/04 07:43:08;;;;;;;3.03;2.00;;;;;;;12.25;50.60;99015.19;4963109;28;20069;-78
2024/02/04 07:45:34;;;;;;;2.17;1.73;;;;;;;12.31;50.68;99024.38;4979327;28;20108;-78
2024/02/04 07:48:00;;;;;;;3.00;1.80;;;;;;;12.35;49.97;99028.41;4978556;28;20052;-80
2024/02/04 07:50:25;;;;;;;4.20;1.70;;;;;;;12.37;49.58;99017.81;4986489;28;20046;-79
2024/02/04 07:52:51;;;;;;;3.25;1.90;;;;;;;12.36;49.12;99018.78;4984273;28;20108;-79
2024/02/04 07:55:17;;;;;;;5.70;1.80;;;;;;;12.36;48.93;99019.59;4988227;28;20042;-79
2024/02/04 07:57:42;;;;;;;3.42;1.90;;;;;;;12.49;48.44;99029.91;4970017;28;20046;-78
2024/02/04 08:00:10;;;;;;;3.55;1.98;;;;;;;12.49;48.71;99015.06;4960398;28;20422;-80
2024/02/04 08:02:37;;;;;;;2.05;1.52;;;;;;;12.49;48.64;99007.22;4976133;28;20041;-80
2024/02/04 08:05:03;;;;;;;3.00;2.10;;;;;;;12.54;48.20;99012.06;4975765;28;20042;-80
2024/02/04 08:07:28;;;;;;;2.40;1.60;;;;;;;12.50;48.24;99015.88;4975506;28;20039;-80
2024/02/04 08:09:54;;;;;;;4.88;1.80;;;;;;;12.52;47.89;99008.72;4982826;28;20037;-79
2024/02/04 08:12:20;;;;;;;3.00;2.10;;;;;;;12.53;47.67;99002.56;4984185;28;20114;-79
2024/02/04 08:14:45;;;;;;;2.35;1.63;;;;;;;12.53;47.68;99015.63;4982464;28;20034;-78
2024/02/04 08:17:11;;;;;;;3.95;2.00;;;;;;;12.89;62.32;99018.88;4993345;28;20042;-79
2024/02/04 08:19:36;;;;;;;4.20;2.10;;;;;;;13.04;61.32;99014.16;4979229;28;20065;-80
2024/02/04 08:22:02;;;;;;;3.03;2.00;;;;;;;13.41;60.92;99013.78;4995356;28;20046;-80
2024/02/04 08:24:29;;;;;;;7.63;2.38;;;;;;;13.57;59.70;99018.56;5012839;28;20156;-76
2024/02/04 08:26:55;;;;;;;3.42;2.22;;;;;;;13.71;59.24;99018.22;5012498;28;20038;-81
2024/02/04 08:29:20;;;;;;;10.00;2.95;;;;;;;13.96;58.26;99028.41;4962864;28;20042;-76
2024/02/04 08:31:46;;;;;;;7.90;3.42;;;;;;;14.04;57.94;99024.19;4978882;28;20469;-77
2024/02/04 08:34:12;;;;;;;8.38;4.32;;;;;;;13.98;56.59;99014.22;4984333;28;20042;-78
2024/02/04 08:36:37;;;;;;;7.25;4.13;;;;;;;13.96;55.94;99021.34;4974874;28;20103;-78
2024/02/04 08:39:03;;;;;;;8.52;3.35;;;;;;;14.01;56.46;99031.47;4974575;28;20046;-78
2024/02/04 08:41:28;;;;;;;5.65;3.35;;;;;;;13.92;54.61;99020.81;4975319;28;20524;-78
2024/02/04 08:43:54;;;;;;;6.00;3.63;;;;;;;13.92;53.98;99026.06;4974665;28;20041;-77
2024/02/04 08:46:19;;;;;;;6.57;3.33;;;;;;;13.77;52.17;99024.72;4942887;28;20053;-76
2024/02/04 08:48:45;;;;;;;7.97;4.80;;;;;;;13.63;48.71;99020.66;4958804;28;20035;-77
2024/02/04 08:51:15;;;;;;;9.50;4.93;;;;;;;13.56;50.39;99007.22;4958251;28;20548;-80
2024/02/04 08:53:41;;;;;;;9.95;5.30;;;;;;;13.55;49.35;99002.09;4943146;28;20039;-77
2024/02/04 08:56:07;;;;;;;8.90;5.70;;;;;;;13.62;48.82;99010.31;4958340;28;20037;-78
2024/02/04 08:58:33;;;;;;;17.92;6.40;;;;;;;13.49;48.26;99006.09;4958260;28;20039;-78
2024/02/04 09:00:58;;;;;;;10.77;6.20;;;;;;;13.35;48.06;99009.03;4974472;28;20417;-77
2024/02/04 09:03:24;;;;;;;15.88;6.72;;;;;;;13.35;46.55;99012.50;4974132;28;20042;-75
2024/02/04 09:05:49;;;;;;;16.50;7.22;;;;;;;13.26;46.30;98999.28;4941588;28;20061;-74
2024/02/04 09:08:15;;;;;;;13.48;7.30;;;;;;;13.24;46.45;99003.84;4960533;28;20464;-79
2024/02/04 09:10:41;;;;;;;12.45;7.18;;;;;;;13.33;45.98;99003.94;4977696;28;20077;-78
2024/02/04 09:13:06;;;;;;;13.82;6.38;;;;;;;13.49;45.39;99008.72;4962315;28;20083;-70
2024/02/04 09:15:32;;;;;;;10.98;5.53;;;;;;;13.72;44.87;99004.13;4985850;28;20463;-71
2024/02/04 09:17:57;;;;;;;10.38;5.20;;;;;;;13.95;44.31;99006.59;4997188;28;20117;-77
2024/02/04 09:20:23;;;;;;;8.90;4.72;;;;;;;14.12;43.63;99002.50;4977884;28;20391;-78
2024/02/04 09:22:48;;;;;;;6.60;4.55;;;;;;;14.45;42.99;99017.13;4977076;28;20490;-76
2024/02/04 09:25:14;;;;;;;9.02;4.45;;;;;;;14.69;42.37;99013.31;4978156;28;20462;-78
2024/02/04 09:27:39;;;;;;;9.02;4.00;;;;;;;14.99;41.70;99028.13;4961570;28;20066;-77
2024/02/04 09:30:05;;;;;;;6.88;3.15;;;;;;;15.22;41.18;99017.31;4961805;28;20050;-81
2024/02/04 09:32:32;;;;;;;11.98;2.45;;;;;;;15.28;40.86;99019.41;4944996;28;20047;-78
2024/02/04 09:34:58;;;;;;;9.73;3.10;;;;;;;15.22;44.74;99019.13;4959621;28;20476;-78
2024/02/04 09:37:24;;;;;;;6.70;3.95;;;;;;;15.26;40.75;99009.97;4980761;28;20485;-79
2024/02/04 09:39:49;;;;;;;6.22;3.72;;;;;;;15.19;49.64;99015.78;4997482;28;20133;-75
2024/02/04 09:42:21;;;;;;;12.15;3.05;;;;;;;15.56;52.79;99008.97;4997424;28;20065;-77
2024/02/04 09:44:50;;;;;;;9.30;3.47;;;;;;;15.78;52.11;99004.34;4980589;28;20037;-77
2024/02/04 09:47:16;;;;;;;6.07;2.92;;;;;;;15.96;51.56;98997.38;4981197;28;20034;-77
2024/02/04 09:49:42;;;;;;;8.75;3.80;;;;;;;16.09;50.70;98989.94;4980684;28;20103;-78
2024/02/04 09:52:11;;;;;;;25.92;4.22;;;;;;;16.23;50.34;98990.44;4980995;28;20046;-80
2024/02/04 09:54:45;;;;;;;9.27;3.92;;;;;;;16.44;49.12;98979.63;4965681;28;20030;-79
2024/02/04 09:57:12;;;;;;;14.73;5.00;;;;;;;16.37;47.72;98982.03;4963992;28;20069;-77
2024/02/04 09:59:37;;;;;;;14.75;5.25;;;;;;;16.28;46.79;98990.84;4979580;28;20412;-75
2024/02/04 10:02:03;;;;;;;13.32;5.28;;;;;;;16.15;47.93;98988.53;4996655;28;20038;-74
2024/02/04 10:04:29;;;;;;;9.65;5.28;;;;;;;16.03;46.46;98987.91;4995467;28;20153;-74
2024/02/04 10:06:54;;;;;;;9.80;4.88;;;;;;;15.85;48.58;98979.13;5014137;28;20477;-76
2024/02/04 10:09:20;;;;;;;11.52;4.80;;;;;;;15.80;47.04;98984.00;4964337;28;20049;-75
2024/02/04 10:11:45;;;;;;;13.10;5.72;;;;;;;15.60;46.27;98980.56;4964337;28;20045;-77
2024/02/04 10:14:11;;;;;;;16.05;5.68;;;;;;;15.52;45.89;98984.72;4980015;28;20100;-77
2024/02/04 10:16:37;;;;;;;10.68;5.40;;;;;;;15.42;45.20;98976.06;4996254;28;20034;-78
2024/02/04 10:19:02;;;;;;;8.60;5.80;;;;;;;15.29;45.21;98979.00;4974102;28;20042;-77
2024/02/04 10:21:28;;;;;;;10.93;5.75;;;;;;;14.98;44.54;98986.22;4980094;28;20068;-76
2024/02/04 10:23:55;;;;;;;10.48;5.88;;;;;;;14.91;45.03;98983.31;4979566;28;20034;-81
2024/02/04 10:26:21;;;;;;;12.30;5.97;;;;;;;14.89;44.92;98981.78;4980693;28;20042;-75
2024/02/04 10:28:47;;;;;;;8.60;3.53;;;;;;;15.02;52.57;99006.84;5014366;28;20428;-75
2024/02/04 10:31:13;;;;;;;7.20;4.03;;;;;;;15.04;50.77;99013.72;4979387;28;20069;-77
2024/02/04 10:33:38;;;;;;;13.57;6.10;;;;;;;14.92;49.43;99015.69;4963790;28;20527;-76
2024/02/04 10:36:04;;;;;;;9.20;5.78;;;;;;;14.81;49.64;99011.38;4995789;28;20038;-77
2024/02/04 10:38:31;;;;;;;14.85;5.55;;;;;;;14.69;49.43;99000.19;4979842;28;20026;-74
2024/02/04 10:40:56;;;;;;;8.18;5.13;;;;;;;14.61;48.58;99021.88;4979277;28;20511;-75
2024/02/04 10:43:23;;;;;;;11.75;5.32;;;;;;;14.50;49.77;99029.84;4980107;28;20048;-75
2024/02/04 10:45:49;;;;;;;12.18;5.10;;;;;;;14.40;50.89;99021.94;4962336;28;20489;-77
2024/02/04 10:48:15;;;;;;;10.20;5.47;;;;;;;14.30;49.65;99023.72;4988848;28;20045;-76
2024/02/04 10:50:41;;;;;;;13.50;5.90;;;;;;;14.22;49.13;99028.81;4988017;28;20990;-76
2024/02/04 10:53:07;;;;;;;9.80;6.50;;;;;;;14.11;48.36;99006.91;4985408;28;20064;-76
2024/02/04 10:55:32;;;;;;;10.75;5.63;;;;;;;13.98;49.52;99021.22;4969396;28;20049;-74
2024/02/04 10:57:58;;;;;;;10.10;6.00;;;;;;;13.90;49.55;99011.41;4975190;28;20041;-76
2024/02/04 11:00:23;;;;;;;11.18;6.05;;;;;;;13.80;49.16;98997.41;4986327;28;20037;-75
2024/02/04 11:02:49;;;;;;;11.30;6.22;;;;;;;13.76;48.70;98988.97;4984267;28;20061;-90
2024/02/04 11:05:16;;;;;;;12.30;6.20;;;;;;;13.73;48.81;98984.00;4983550;28;20074;-84
2024/02/04 11:07:42;;;;;;;8.70;5.55;;;;;;;13.74;48.57;98975.13;5013836;28;20095;-83
2024/02/04 11:10:08;;;;;;;9.10;5.53;;;;;;;13.72;48.44;98969.19;4997884;28;20030;-83
2024/02/04 11:12:34;;;;;;;8.80;5.32;;;;;;;13.73;48.34;98970.88;4980538;28;20042;-85
2024/02/04 11:15:01;;;;;;;8.98;5.20;;;;;;;13.65;47.70;98968.06;4996882;28;20038;-83
2024/02/04 11:18:01;;;;;;;7.97;3.73;;;;;;;13.74;55.50;98960.25;4980582;28;20046;-88
2024/02/04 11:21:07;;;;;;;6.90;3.70;;;;;;;13.85;53.63;98976.84;5016074;28;20045;-85
2024/02/04 11:23:45;;;;;;;10.15;4.03;;;;;;;13.83;51.78;98971.72;4993963;28;20034;-85
2024/02/04 11:26:10;;;;;;;6.13;3.60;;;;;;;13.88;51.17;98969.56;5012813;28;20064;-87
2024/02/04 11:28:36;;;;;;;9.27;3.95;;;;;;;13.91;50.56;98966.66;4961787;28;20046;-86
2024/02/04 11:31:02;;;;;;;6.30;3.50;;;;;;;13.88;49.76;98959.06;4976582;28;20041;-83
2024/02/04 11:33:27;;;;;;;5.63;3.25;;;;;;;13.92;49.33;98963.06;4977771;28;20119;-79